Airfield :
LOGIN :

Register | Disclaimer

   EN    FR    IT 

 










Legend :    VFR   Marginal VFR   IFR   Intensive IFR   Very Intensive IFR
Visi :
Ceiling :
>= 8 km
>= 3000ft
5 to 8 km
1000 to 3000 ft
1500m to 5 km
500 to 1000 ft
800 to 1500m
200 to 500 ft
< 800m
< 200 ft
Symbols :   Thunderstorms  Fog  Heavy snow  Heavy precipitations  Wind > 20 kt
SIGMETs :     Misc.  Thunderstorms  Icing  Turbulence  Mountain Waves  Volcanic Ashes







- Airport Elevation : 755 ft
- IATA code : DRS


EDDC - Dresden Klotzsche

CURRENT METAR :
  • 251120Z VRB03KT 9999 FEW010 SCT035 BKN060 14/11 Q1021 NOSIG

EXPIRED METARs :
  • 251050Z VRB02KT 9999 FEW007 BKN060 14/11 Q1021 NOSIG
  • 251020Z 12003KT 100V160 9999 FEW006 BKN042 BKN064 13/12 Q1021 NOSIG
  • 250950Z 07003KT 040V110 9999 FEW004 SCT022 BKN050 13/12 Q1021 TEMPO BKN008
  • 250920Z 06004KT 030V090 7000 SCT004 BKN018 BKN050 13/12 Q1021 TEMPO BKN008
  • 250850Z 07003KT 030V100 6000 SCT005 BKN008 BKN060 13/12 Q1021 TEMPO SCT012
  • 250820Z 08004KT 040V120 4500 -RA BR BKN003 BKN061 13/12 Q1021 BECMG 5000 BKN005

TAF TAF EDDC
Valid from the 25 at 06:00 until the 26 at 06:00 UTC


250500Z 2506/2606 01004KT 0300 -RADZ OVC000
BECMG 2507/2510 8000 SCT004 BKN007
BECMG 2510/2513 11006KT BKN012
BECMG 2514/2516 FEW025
PROB30
TEMPO 2515/2518 2500 -RA SCT004 BKN009
No reported NOTAMs for that airfield.



MET'MAP, your aeronautical weather chart ! - Copyright ORBIFLY December 2007 - Disclaimer

ORBIFLY MET'MAP TEAM :

Programming & Development : Alexandra Zaïnal
Concept & Development : Baudouin d'Aumeries
Co-Development & Prog : Marc-Olivier Méhu
Technical & hardware support : Manuel Goepfert

Contact : metmap@orbifly.com




SOURCES & CREDITS :

   NOAA